aviador You're here:

KMHL Decoded Metar

in
Report Time2017-04-29 11:15:00
UTC Time2017-04-29 11:16:52
Flight Rules lifr LIFR
Wind040° at 13 kt
W.Decomp.*RWY 36: 10.0 kt HW 8.4 kt RCW
RWY 09: 8.4 kt HW 10 kt LCW
W.Rank040° ranks 33
Current wind is above 040° avg. (6.3)
Visibility4828 m
Phenomena:Mist
Clouds:Overcast 003 Hf
Ceiling300 ft
Temp10°C
Dew Point10°C (100% RH)
AAT5.4°C
QNH1012 hPa
Raw Report
KMHL 291115Z AUTO 04013KT 3SM BR OVC003 10/10 A2989 RMK AO2 LTG
DSNT E AND S=

Extra information for KMHL:More info

Social comments